sensor_id;sensor_type;location;lat;lon;timestamp;temperature;humidity
51878;SHT31;37911;51.526;11.536;2023-12-22T00:01:52;3.94;84.66
51878;SHT31;37911;51.526;11.536;2023-12-22T00:04:56;3.94;84.52
51878;SHT31;37911;51.526;11.536;2023-12-22T00:07:59;3.93;83.98
51878;SHT31;37911;51.526;11.536;2023-12-22T00:11:03;3.97;83.89
51878;SHT31;37911;51.526;11.536;2023-12-22T00:14:06;4.00;83.41
51878;SHT31;37911;51.526;11.536;2023-12-22T00:17:12;3.94;83.62
51878;SHT31;37911;51.526;11.536;2023-12-22T00:20:15;4.00;82.83
51878;SHT31;37911;51.526;11.536;2023-12-22T00:23:19;3.97;82.74
51878;SHT31;37911;51.526;11.536;2023-12-22T00:26:22;4.03;82.32
51878;SHT31;37911;51.526;11.536;2023-12-22T00:29:26;4.04;82.30
51878;SHT31;37911;51.526;11.536;2023-12-22T00:32:32;4.07;82.20
51878;SHT31;37911;51.526;11.536;2023-12-22T00:35:35;4.09;82.35
51878;SHT31;37911;51.526;11.536;2023-12-22T00:38:39;4.14;82.58
51878;SHT31;37911;51.526;11.536;2023-12-22T00:41:42;4.14;82.76
51878;SHT31;37911;51.526;11.536;2023-12-22T00:44:45;4.17;82.89
51878;SHT31;37911;51.526;11.536;2023-12-22T00:47:51;4.22;83.05
51878;SHT31;37911;51.526;11.536;2023-12-22T00:50:54;4.20;83.45
51878;SHT31;37911;51.526;11.536;2023-12-22T00:53:58;4.17;83.41
51878;SHT31;37911;51.526;11.536;2023-12-22T00:57:01;4.17;83.15
51878;SHT31;37911;51.526;11.536;2023-12-22T01:00:06;4.22;83.03
51878;SHT31;37911;51.526;11.536;2023-12-22T01:03:15;4.16;82.54
51878;SHT31;37911;51.526;11.536;2023-12-22T01:06:18;4.14;82.41
51878;SHT31;37911;51.526;11.536;2023-12-22T01:09:21;4.09;82.28
51878;SHT31;37911;51.526;11.536;2023-12-22T01:12:25;4.10;82.00
51878;SHT31;37911;51.526;11.536;2023-12-22T01:15:29;4.11;81.70
51878;SHT31;37911;51.526;11.536;2023-12-22T01:18:34;4.18;80.89
51878;SHT31;37911;51.526;11.536;2023-12-22T01:21:40;4.13;81.49
51878;SHT31;37911;51.526;11.536;2023-12-22T01:24:43;4.13;81.71
51878;SHT31;37911;51.526;11.536;2023-12-22T01:27:47;4.09;82.36
51878;SHT31;37911;51.526;11.536;2023-12-22T01:30:52;4.00;83.00
51878;SHT31;37911;51.526;11.536;2023-12-22T01:33:58;4.03;82.78
51878;SHT31;37911;51.526;11.536;2023-12-22T01:37:02;4.06;82.44
51878;SHT31;37911;51.526;11.536;2023-12-22T01:40:07;4.11;82.48
51878;SHT31;37911;51.526;11.536;2023-12-22T01:43:10;4.06;83.26
51878;SHT31;37911;51.526;11.536;2023-12-22T01:46:14;3.99;83.38
51878;SHT31;37911;51.526;11.536;2023-12-22T01:49:21;3.90;83.62
51878;SHT31;37911;51.526;11.536;2023-12-22T01:52:26;3.94;83.48
51878;SHT31;37911;51.526;11.536;2023-12-22T01:55:30;3.93;83.39
51878;SHT31;37911;51.526;11.536;2023-12-22T01:58:34;3.91;83.72
51878;SHT31;37911;51.526;11.536;2023-12-22T02:01:50;3.87;83.98
51878;SHT31;37911;51.526;11.536;2023-12-22T02:04:56;3.79;84.13
51878;SHT31;37911;51.526;11.536;2023-12-22T02:08:00;3.77;83.96
51878;SHT31;37911;51.526;11.536;2023-12-22T02:11:03;3.79;83.68
51878;SHT31;37911;51.526;11.536;2023-12-22T02:14:07;3.75;83.72
51878;SHT31;37911;51.526;11.536;2023-12-22T02:17:15;3.75;83.60
51878;SHT31;37911;51.526;11.536;2023-12-22T02:20:25;3.65;84.31
51878;SHT31;37911;51.526;11.536;2023-12-22T02:23:32;3.63;84.13
51878;SHT31;37911;51.526;11.536;2023-12-22T02:26:42;3.58;83.90
51878;SHT31;37911;51.526;11.536;2023-12-22T02:29:51;3.59;83.50
51878;SHT31;37911;51.526;11.536;2023-12-22T02:32:59;3.52;83.56
51878;SHT31;37911;51.526;11.536;2023-12-22T02:36:05;3.54;83.31
51878;SHT31;37911;51.526;11.536;2023-12-22T02:39:12;3.51;83.70
51878;SHT31;37911;51.526;11.536;2023-12-22T02:42:17;3.51;83.74
51878;SHT31;37911;51.526;11.536;2023-12-22T02:45:23;3.54;83.63
51878;SHT31;37911;51.526;11.536;2023-12-22T02:48:27;3.54;83.25
51878;SHT31;37911;51.526;11.536;2023-12-22T02:51:30;3.55;83.00
51878;SHT31;37911;51.526;11.536;2023-12-22T02:54:36;3.69;82.13
51878;SHT31;37911;51.526;11.536;2023-12-22T02:57:40;3.62;82.34
51878;SHT31;37911;51.526;11.536;2023-12-22T03:00:43;3.67;81.58
51878;SHT31;37911;51.526;11.536;2023-12-22T03:03:47;3.69;81.32
51878;SHT31;37911;51.526;11.536;2023-12-22T03:06:50;3.75;81.20
51878;SHT31;37911;51.526;11.536;2023-12-22T03:09:56;3.70;81.41
51878;SHT31;37911;51.526;11.536;2023-12-22T03:12:59;3.79;80.55
51878;SHT31;37911;51.526;11.536;2023-12-22T03:16:07;3.76;81.06
51878;SHT31;37911;51.526;11.536;2023-12-22T03:19:11;3.80;80.89
51878;SHT31;37911;51.526;11.536;2023-12-22T03:22:14;3.67;81.49
51878;SHT31;37911;51.526;11.536;2023-12-22T03:25:20;3.66;82.06
51878;SHT31;37911;51.526;11.536;2023-12-22T03:28:25;3.66;82.27
51878;SHT31;37911;51.526;11.536;2023-12-22T03:31:28;3.67;82.75
51878;SHT31;37911;51.526;11.536;2023-12-22T03:34:32;3.62;82.67
51878;SHT31;37911;51.526;11.536;2023-12-22T03:37:35;3.58;82.53
51878;SHT31;37911;51.526;11.536;2023-12-22T03:40:41;3.60;81.86
51878;SHT31;37911;51.526;11.536;2023-12-22T03:43:44;3.67;80.92
51878;SHT31;37911;51.526;11.536;2023-12-22T03:46:48;3.80;79.28
51878;SHT31;37911;51.526;11.536;2023-12-22T03:49:52;3.85;79.42
51878;SHT31;37911;51.526;11.536;2023-12-22T03:52:55;3.89;79.76
51878;SHT31;37911;51.526;11.536;2023-12-22T03:56:01;3.96;79.83
51878;SHT31;37911;51.526;11.536;2023-12-22T03:59:04;3.96;79.61
51878;SHT31;37911;51.526;11.536;2023-12-22T04:02:08;4.01;78.93
51878;SHT31;37911;51.526;11.536;2023-12-22T04:05:11;4.04;78.83
51878;SHT31;37911;51.526;11.536;2023-12-22T04:08:14;4.04;78.65
51878;SHT31;37911;51.526;11.536;2023-12-22T04:11:20;4.07;78.73
51878;SHT31;37911;51.526;11.536;2023-12-22T04:14:23;4.00;78.55
51878;SHT31;37911;51.526;11.536;2023-12-22T04:17:27;4.00;78.89
51878;SHT31;37911;51.526;11.536;2023-12-22T04:20:30;4.10;77.96
51878;SHT31;37911;51.526;11.536;2023-12-22T04:23:33;4.09;78.63
51878;SHT31;37911;51.526;11.536;2023-12-22T04:26:39;4.07;78.51
51878;SHT31;37911;51.526;11.536;2023-12-22T04:29:43;4.09;79.25
51878;SHT31;37911;51.526;11.536;2023-12-22T04:32:46;4.00;80.83
51878;SHT31;37911;51.526;11.536;2023-12-22T04:35:49;3.93;80.96
51878;SHT31;37911;51.526;11.536;2023-12-22T04:38:53;3.89;80.96
51878;SHT31;37911;51.526;11.536;2023-12-22T04:41:59;3.85;79.71
51878;SHT31;37911;51.526;11.536;2023-12-22T04:45:02;3.94;78.22
51878;SHT31;37911;51.526;11.536;2023-12-22T04:48:06;4.03;77.29
51878;SHT31;37911;51.526;11.536;2023-12-22T04:51:10;4.09;76.50
51878;SHT31;37911;51.526;11.536;2023-12-22T04:54:13;4.11;75.94
51878;SHT31;37911;51.526;11.536;2023-12-22T04:57:19;4.17;75.03
51878;SHT31;37911;51.526;11.536;2023-12-22T05:00:22;4.27;73.64
51878;SHT31;37911;51.526;11.536;2023-12-22T05:03:25;4.24;74.26
51878;SHT31;37911;51.526;11.536;2023-12-22T05:06:29;4.18;74.46
51878;SHT31;37911;51.526;11.536;2023-12-22T05:09:32;4.14;74.74
51878;SHT31;37911;51.526;11.536;2023-12-22T05:12:38;4.16;74.42
51878;SHT31;37911;51.526;11.536;2023-12-22T05:15:42;4.21;74.60
51878;SHT31;37911;51.526;11.536;2023-12-22T05:18:46;4.18;75.16
51878;SHT31;37911;51.526;11.536;2023-12-22T05:21:49;4.22;74.75
51878;SHT31;37911;51.526;11.536;2023-12-22T05:24:57;4.18;75.86
51878;SHT31;37911;51.526;11.536;2023-12-22T05:28:03;4.24;75.56
51878;SHT31;37911;51.526;11.536;2023-12-22T05:31:07;4.18;76.36
51878;SHT31;37911;51.526;11.536;2023-12-22T05:34:10;4.20;75.94
51878;SHT31;37911;51.526;11.536;2023-12-22T05:37:13;4.17;76.87
51878;SHT31;37911;51.526;11.536;2023-12-22T05:40:16;4.11;78.57
51878;SHT31;37911;51.526;11.536;2023-12-22T05:43:22;4.04;79.35
51878;SHT31;37911;51.526;11.536;2023-12-22T05:46:26;4.03;80.02
51878;SHT31;37911;51.526;11.536;2023-12-22T05:49:29;3.97;80.65
51878;SHT31;37911;51.526;11.536;2023-12-22T05:52:33;3.99;81.02
51878;SHT31;37911;51.526;11.536;2023-12-22T05:55:36;3.89;81.79
51878;SHT31;37911;51.526;11.536;2023-12-22T05:58:42;3.86;81.85
51878;SHT31;37911;51.526;11.536;2023-12-22T06:01:45;3.86;81.53
51878;SHT31;37911;51.526;11.536;2023-12-22T06:04:49;3.83;81.71
51878;SHT31;37911;51.526;11.536;2023-12-22T06:07:52;3.97;78.64
51878;SHT31;37911;51.526;11.536;2023-12-22T06:10:55;4.07;77.81
51878;SHT31;37911;51.526;11.536;2023-12-22T06:14:01;4.09;77.89
51878;SHT31;37911;51.526;11.536;2023-12-22T06:17:04;4.13;76.65
51878;SHT31;37911;51.526;11.536;2023-12-22T06:20:09;4.16;75.74
51878;SHT31;37911;51.526;11.536;2023-12-22T06:23:12;4.22;74.58
51878;SHT31;37911;51.526;11.536;2023-12-22T06:26:16;4.21;74.89
51878;SHT31;37911;51.526;11.536;2023-12-22T06:29:22;4.25;74.33
51878;SHT31;37911;51.526;11.536;2023-12-22T06:32:26;4.22;73.78
51878;SHT31;37911;51.526;11.536;2023-12-22T06:35:29;4.21;73.91
51878;SHT31;37911;51.526;11.536;2023-12-22T06:38:34;4.31;73.40
51878;SHT31;37911;51.526;11.536;2023-12-22T06:41:37;4.36;74.23
51878;SHT31;37911;51.526;11.536;2023-12-22T06:44:44;4.21;77.28
51878;SHT31;37911;51.526;11.536;2023-12-22T06:47:47;3.94;82.20
51878;SHT31;37911;51.526;11.536;2023-12-22T06:50:50;3.67;85.08
51878;SHT31;37911;51.526;11.536;2023-12-22T06:53:54;3.51;85.96
51878;SHT31;37911;51.526;11.536;2023-12-22T06:56:57;3.42;86.55
51878;SHT31;37911;51.526;11.536;2023-12-22T07:00:05;3.35;86.73
51878;SHT31;37911;51.526;11.536;2023-12-22T07:03:08;3.36;86.03
51878;SHT31;37911;51.526;11.536;2023-12-22T07:06:13;3.36;85.38
51878;SHT31;37911;51.526;11.536;2023-12-22T07:09:32;3.43;84.00
51878;SHT31;37911;51.526;11.536;2023-12-22T07:12:35;3.46;83.79
51878;SHT31;37911;51.526;11.536;2023-12-22T07:15:42;3.54;82.49
51878;SHT31;37911;51.526;11.536;2023-12-22T07:18:45;3.66;80.67
51878;SHT31;37911;51.526;11.536;2023-12-22T07:21:48;3.75;80.29
51878;SHT31;37911;51.526;11.536;2023-12-22T07:24:52;3.77;78.12
51878;SHT31;37911;51.526;11.536;2023-12-22T07:27:55;3.89;77.06
51878;SHT31;37911;51.526;11.536;2023-12-22T07:31:01;3.90;76.82
51878;SHT31;37911;51.526;11.536;2023-12-22T07:34:05;4.07;75.03
51878;SHT31;37911;51.526;11.536;2023-12-22T07:37:09;4.18;73.71
51878;SHT31;37911;51.526;11.536;2023-12-22T07:40:12;4.31;73.39
51878;SHT31;37911;51.526;11.536;2023-12-22T07:43:16;4.42;72.86
51878;SHT31;37911;51.526;11.536;2023-12-22T07:46:22;4.51;73.30
51878;SHT31;37911;51.526;11.536;2023-12-22T07:49:25;4.47;73.63
51878;SHT31;37911;51.526;11.536;2023-12-22T07:52:29;4.30;74.55
51878;SHT31;37911;51.526;11.536;2023-12-22T07:55:32;4.17;75.59
51878;SHT31;37911;51.526;11.536;2023-12-22T07:58:35;4.11;76.02
51878;SHT31;37911;51.526;11.536;2023-12-22T08:01:42;4.14;74.89
51878;SHT31;37911;51.526;11.536;2023-12-22T08:04:46;4.06;75.18
51878;SHT31;37911;51.526;11.536;2023-12-22T08:07:49;3.93;76.37
51878;SHT31;37911;51.526;11.536;2023-12-22T08:10:52;3.89;77.41
51878;SHT31;37911;51.526;11.536;2023-12-22T08:13:56;3.67;80.45
51878;SHT31;37911;51.526;11.536;2023-12-22T08:17:02;3.54;81.70
51878;SHT31;37911;51.526;11.536;2023-12-22T08:20:07;3.49;82.08
51878;SHT31;37911;51.526;11.536;2023-12-22T08:23:10;3.48;82.75
51878;SHT31;37911;51.526;11.536;2023-12-22T08:26:15;3.59;82.62
51878;SHT31;37911;51.526;11.536;2023-12-22T08:29:19;3.62;82.95
51878;SHT31;37911;51.526;11.536;2023-12-22T08:32:25;3.59;83.48
51878;SHT31;37911;51.526;11.536;2023-12-22T08:35:29;3.51;84.77
51878;SHT31;37911;51.526;11.536;2023-12-22T08:38:32;3.45;85.46
51878;SHT31;37911;51.526;11.536;2023-12-22T08:41:37;3.38;86.13
51878;SHT31;37911;51.526;11.536;2023-12-22T08:44:40;3.38;86.53
51878;SHT31;37911;51.526;11.536;2023-12-22T08:47:46;3.34;87.08
51878;SHT31;37911;51.526;11.536;2023-12-22T08:50:49;3.32;87.62
51878;SHT31;37911;51.526;11.536;2023-12-22T08:53:53;3.36;87.77
51878;SHT31;37911;51.526;11.536;2023-12-22T08:56:56;3.34;87.95
51878;SHT31;37911;51.526;11.536;2023-12-22T08:59:59;3.34;88.08
51878;SHT31;37911;51.526;11.536;2023-12-22T09:03:06;3.28;88.30
51878;SHT31;37911;51.526;11.536;2023-12-22T09:06:10;3.14;88.11
51878;SHT31;37911;51.526;11.536;2023-12-22T09:09:13;2.94;88.02
51878;SHT31;37911;51.526;11.536;2023-12-22T09:12:17;2.70;87.91
51878;SHT31;37911;51.526;11.536;2023-12-22T09:15:20;2.49;88.67
51878;SHT31;37911;51.526;11.536;2023-12-22T09:18:26;2.56;88.65
51878;SHT31;37911;51.526;11.536;2023-12-22T09:21:29;2.46;88.97
51878;SHT31;37911;51.526;11.536;2023-12-22T09:24:33;2.39;89.57
51878;SHT31;37911;51.526;11.536;2023-12-22T09:27:37;2.51;89.89
51878;SHT31;37911;51.526;11.536;2023-12-22T09:30:40;2.64;90.03
51878;SHT31;37911;51.526;11.536;2023-12-22T09:33:46;2.73;89.89
51878;SHT31;37911;51.526;11.536;2023-12-22T09:36:49;2.92;89.86
51878;SHT31;37911;51.526;11.536;2023-12-22T09:39:52;3.02;89.58
51878;SHT31;37911;51.526;11.536;2023-12-22T09:42:57;3.15;89.37
51878;SHT31;37911;51.526;11.536;2023-12-22T09:46:01;3.43;87.70
51878;SHT31;37911;51.526;11.536;2023-12-22T09:49:08;3.77;85.97
51878;SHT31;37911;51.526;11.536;2023-12-22T09:52:12;3.97;84.90
51878;SHT31;37911;51.526;11.536;2023-12-22T09:55:17;4.25;82.25
51878;SHT31;37911;51.526;11.536;2023-12-22T09:58:22;4.48;81.29
51878;SHT31;37911;51.526;11.536;2023-12-22T10:01:26;4.71;80.37
51878;SHT31;37911;51.526;11.536;2023-12-22T10:04:33;5.00;78.41
51878;SHT31;37911;51.526;11.536;2023-12-22T10:07:37;5.30;76.72
51878;SHT31;37911;51.526;11.536;2023-12-22T10:10:41;5.33;75.79
51878;SHT31;37911;51.526;11.536;2023-12-22T10:13:45;5.27;75.33
51878;SHT31;37911;51.526;11.536;2023-12-22T10:16:49;5.29;75.12
51878;SHT31;37911;51.526;11.536;2023-12-22T10:19:55;5.53;75.27
51878;SHT31;37911;51.526;11.536;2023-12-22T10:22:58;5.87;74.51
51878;SHT31;37911;51.526;11.536;2023-12-22T10:26:02;5.97;73.35
51878;SHT31;37911;51.526;11.536;2023-12-22T10:29:05;6.01;73.59
51878;SHT31;37911;51.526;11.536;2023-12-22T10:32:09;6.28;73.46
51878;SHT31;37911;51.526;11.536;2023-12-22T10:35:15;6.52;71.45
51878;SHT31;37911;51.526;11.536;2023-12-22T10:38:18;6.61;72.79
51878;SHT31;37911;51.526;11.536;2023-12-22T10:41:22;6.71;71.87
51878;SHT31;37911;51.526;11.536;2023-12-22T10:44:26;6.72;71.18
51878;SHT31;37911;51.526;11.536;2023-12-22T10:47:30;6.66;69.97
51878;SHT31;37911;51.526;11.536;2023-12-22T10:50:36;6.45;70.54
51878;SHT31;37911;51.526;11.536;2023-12-22T10:53:42;6.21;70.74
51878;SHT31;37911;51.526;11.536;2023-12-22T10:56:46;6.10;71.42
51878;SHT31;37911;51.526;11.536;2023-12-22T10:59:50;5.95;71.49
51878;SHT31;37911;51.526;11.536;2023-12-22T11:03:00;5.83;71.73
51878;SHT31;37911;51.526;11.536;2023-12-22T11:06:10;5.78;72.40
51878;SHT31;37911;51.526;11.536;2023-12-22T11:09:16;5.71;73.08
51878;SHT31;37911;51.526;11.536;2023-12-22T11:12:21;5.67;72.68
51878;SHT31;37911;51.526;11.536;2023-12-22T11:15:26;5.74;74.69
51878;SHT31;37911;51.526;11.536;2023-12-22T11:18:31;5.70;75.07
51878;SHT31;37911;51.526;11.536;2023-12-22T11:21:40;5.66;75.87
51878;SHT31;37911;51.526;11.536;2023-12-22T11:24:45;5.60;75.72
51878;SHT31;37911;51.526;11.536;2023-12-22T11:27:50;5.51;77.27
51878;SHT31;37911;51.526;11.536;2023-12-22T11:30:55;5.47;77.76
51878;SHT31;37911;51.526;11.536;2023-12-22T11:33:59;5.30;78.91
51878;SHT31;37911;51.526;11.536;2023-12-22T11:37:06;5.18;80.14
51878;SHT31;37911;51.526;11.536;2023-12-22T11:40:10;5.08;80.74
51878;SHT31;37911;51.526;11.536;2023-12-22T11:43:14;5.06;80.70
51878;SHT31;37911;51.526;11.536;2023-12-22T11:46:19;5.05;81.21
51878;SHT31;37911;51.526;11.536;2023-12-22T11:49:31;4.97;81.79
51878;SHT31;37911;51.526;11.536;2023-12-22T11:52:37;5.00;82.29
51878;SHT31;37911;51.526;11.536;2023-12-22T11:55:56;4.99;82.69
51878;SHT31;37911;51.526;11.536;2023-12-22T11:59:01;5.03;82.85
51878;SHT31;37911;51.526;11.536;2023-12-22T12:02:07;5.03;83.11
51878;SHT31;37911;51.526;11.536;2023-12-22T12:05:12;5.11;82.93
51878;SHT31;37911;51.526;11.536;2023-12-22T12:08:29;5.16;82.58
51878;SHT31;37911;51.526;11.536;2023-12-22T12:15:10;5.27;82.12
51878;SHT31;37911;51.526;11.536;2023-12-22T12:18:14;5.33;81.78
51878;SHT31;37911;51.526;11.536;2023-12-22T12:21:18;5.47;80.73
51878;SHT31;37911;51.526;11.536;2023-12-22T12:24:25;5.58;80.19
51878;SHT31;37911;51.526;11.536;2023-12-22T12:27:28;5.60;80.45
51878;SHT31;37911;51.526;11.536;2023-12-22T12:30:37;5.67;79.23
51878;SHT31;37911;51.526;11.536;2023-12-22T12:33:41;5.67;79.05
51878;SHT31;37911;51.526;11.536;2023-12-22T12:36:45;5.74;78.46
51878;SHT31;37911;51.526;11.536;2023-12-22T12:39:54;5.74;78.49
51878;SHT31;37911;51.526;11.536;2023-12-22T12:43:01;5.83;77.36
51878;SHT31;37911;51.526;11.536;2023-12-22T12:46:05;5.83;77.10
51878;SHT31;37911;51.526;11.536;2023-12-22T12:49:10;5.98;75.47
51878;SHT31;37911;51.526;11.536;2023-12-22T12:52:15;6.02;75.61
51878;SHT31;37911;51.526;11.536;2023-12-22T12:55:23;6.12;75.25
51878;SHT31;37911;51.526;11.536;2023-12-22T12:58:27;6.15;75.34
51878;SHT31;37911;51.526;11.536;2023-12-22T13:01:31;6.20;74.58
51878;SHT31;37911;51.526;11.536;2023-12-22T13:04:38;6.25;74.64
51878;SHT31;37911;51.526;11.536;2023-12-22T13:07:41;6.24;75.03
51878;SHT31;37911;51.526;11.536;2023-12-22T13:10:48;6.26;74.38
51878;SHT31;37911;51.526;11.536;2023-12-22T13:13:51;6.24;74.65
51878;SHT31;37911;51.526;11.536;2023-12-22T13:16:56;6.25;74.09
51878;SHT31;37911;51.526;11.536;2023-12-22T13:20:00;6.33;73.70
51878;SHT31;37911;51.526;11.536;2023-12-22T13:23:05;6.32;73.73
51878;SHT31;37911;51.526;11.536;2023-12-22T13:26:20;6.29;73.75
51878;SHT31;37911;51.526;11.536;2023-12-22T13:29:23;6.31;73.89
51878;SHT31;37911;51.526;11.536;2023-12-22T13:32:27;6.36;73.46
51878;SHT31;37911;51.526;11.536;2023-12-22T13:35:30;6.35;73.25
51878;SHT31;37911;51.526;11.536;2023-12-22T13:38:36;6.29;73.61
51878;SHT31;37911;51.526;11.536;2023-12-22T13:41:42;6.31;73.98
51878;SHT31;37911;51.526;11.536;2023-12-22T13:44:49;6.20;73.76
51878;SHT31;37911;51.526;11.536;2023-12-22T13:47:53;6.20;73.82
51878;SHT31;37911;51.526;11.536;2023-12-22T13:50:59;6.22;73.26
51878;SHT31;37911;51.526;11.536;2023-12-22T13:54:02;6.21;73.73
51878;SHT31;37911;51.526;11.536;2023-12-22T13:57:19;6.20;73.82
51878;SHT31;37911;51.526;11.536;2023-12-22T14:00:26;6.20;73.82
51878;SHT31;37911;51.526;11.536;2023-12-22T14:03:31;6.17;73.72
51878;SHT31;37911;51.526;11.536;2023-12-22T14:06:34;6.21;73.62
51878;SHT31;37911;51.526;11.536;2023-12-22T14:09:38;6.14;74.33
51878;SHT31;37911;51.526;11.536;2023-12-22T14:12:44;6.12;74.46
51878;SHT31;37911;51.526;11.536;2023-12-22T14:15:47;6.11;74.35
51878;SHT31;37911;51.526;11.536;2023-12-22T14:18:50;6.11;74.29
51878;SHT31;37911;51.526;11.536;2023-12-22T14:21:58;6.08;74.69
51878;SHT31;37911;51.526;11.536;2023-12-22T14:25:03;6.11;74.47
51878;SHT31;37911;51.526;11.536;2023-12-22T14:28:09;6.07;74.79
51878;SHT31;37911;51.526;11.536;2023-12-22T14:31:12;6.10;74.40
51878;SHT31;37911;51.526;11.536;2023-12-22T14:34:16;6.10;74.44
51878;SHT31;37911;51.526;11.536;2023-12-22T14:37:19;6.14;74.60
51878;SHT31;37911;51.526;11.536;2023-12-22T14:40:22;6.14;74.87
51878;SHT31;37911;51.526;11.536;2023-12-22T14:43:28;6.10;75.11
51878;SHT31;37911;51.526;11.536;2023-12-22T14:46:32;6.11;74.28
51878;SHT31;37911;51.526;11.536;2023-12-22T14:49:35;6.08;74.50
51878;SHT31;37911;51.526;11.536;2023-12-22T14:52:38;6.04;74.81
51878;SHT31;37911;51.526;11.536;2023-12-22T14:55:42;5.97;75.03
51878;SHT31;37911;51.526;11.536;2023-12-22T14:58:48;5.93;75.43
51878;SHT31;37911;51.526;11.536;2023-12-22T15:01:51;5.94;74.85
51878;SHT31;37911;51.526;11.536;2023-12-22T15:04:54;5.91;74.57
51878;SHT31;37911;51.526;11.536;2023-12-22T15:07:57;5.84;75.18
51878;SHT31;37911;51.526;11.536;2023-12-22T15:11:01;5.86;75.79
51878;SHT31;37911;51.526;11.536;2023-12-22T15:14:07;5.86;75.98
51878;SHT31;37911;51.526;11.536;2023-12-22T15:17:11;5.80;76.07
51878;SHT31;37911;51.526;11.536;2023-12-22T15:20:14;5.78;76.50
51878;SHT31;37911;51.526;11.536;2023-12-22T15:23:18;5.75;76.93
51878;SHT31;37911;51.526;11.536;2023-12-22T15:26:22;5.71;77.50
51878;SHT31;37911;51.526;11.536;2023-12-22T15:29:28;5.67;77.69
51878;SHT31;37911;51.526;11.536;2023-12-22T15:32:31;5.60;78.21
51878;SHT31;37911;51.526;11.536;2023-12-22T15:35:35;5.58;76.88
51878;SHT31;37911;51.526;11.536;2023-12-22T15:38:38;5.66;76.48
51878;SHT31;37911;51.526;11.536;2023-12-22T15:41:42;5.67;76.62
51878;SHT31;37911;51.526;11.536;2023-12-22T15:44:48;5.66;76.99
51878;SHT31;37911;51.526;11.536;2023-12-22T15:47:51;5.63;77.52
51878;SHT31;37911;51.526;11.536;2023-12-22T15:50:55;5.63;76.89
51878;SHT31;37911;51.526;11.536;2023-12-22T15:53:58;5.64;76.89
51878;SHT31;37911;51.526;11.536;2023-12-22T15:57:03;5.67;76.04
51878;SHT31;37911;51.526;11.536;2023-12-22T16:00:11;5.67;76.13
51878;SHT31;37911;51.526;11.536;2023-12-22T16:03:15;5.61;76.49
51878;SHT31;37911;51.526;11.536;2023-12-22T16:06:19;5.60;77.01
51878;SHT31;37911;51.526;11.536;2023-12-22T16:09:22;5.57;78.29
51878;SHT31;37911;51.526;11.536;2023-12-22T16:12:25;5.56;78.99
51878;SHT31;37911;51.526;11.536;2023-12-22T16:15:31;5.51;80.11
51878;SHT31;37911;51.526;11.536;2023-12-22T16:18:35;5.46;80.51
51878;SHT31;37911;51.526;11.536;2023-12-22T16:21:42;5.43;80.64
51878;SHT31;37911;51.526;11.536;2023-12-22T16:24:47;5.39;81.28
51878;SHT31;37911;51.526;11.536;2023-12-22T16:27:50;5.33;81.32
51878;SHT31;37911;51.526;11.536;2023-12-22T16:30:56;5.30;81.04
51878;SHT31;37911;51.526;11.536;2023-12-22T16:34:00;5.29;81.62
51878;SHT31;37911;51.526;11.536;2023-12-22T16:37:03;5.20;82.37
51878;SHT31;37911;51.526;11.536;2023-12-22T16:40:09;5.15;82.70
51878;SHT31;37911;51.526;11.536;2023-12-22T16:43:13;5.09;83.53
51878;SHT31;37911;51.526;11.536;2023-12-22T16:46:20;4.97;84.35
51878;SHT31;37911;51.526;11.536;2023-12-22T16:49:23;4.96;84.43
51878;SHT31;37911;51.526;11.536;2023-12-22T16:52:26;4.91;84.65
51878;SHT31;37911;51.526;11.536;2023-12-22T16:55:30;4.89;85.02
51878;SHT31;37911;51.526;11.536;2023-12-22T16:58:33;4.91;85.12
51878;SHT31;37911;51.526;11.536;2023-12-22T17:01:39;4.89;85.49
51878;SHT31;37911;51.526;11.536;2023-12-22T17:04:46;4.91;85.81
51878;SHT31;37911;51.526;11.536;2023-12-22T17:07:50;4.91;86.73
51878;SHT31;37911;51.526;11.536;2023-12-22T17:10:53;4.93;86.87
51878;SHT31;37911;51.526;11.536;2023-12-22T17:13:56;4.96;87.45
51878;SHT31;37911;51.526;11.536;2023-12-22T17:17:02;4.99;87.89
51878;SHT31;37911;51.526;11.536;2023-12-22T17:20:07;5.02;88.34
51878;SHT31;37911;51.526;11.536;2023-12-22T17:23:11;5.02;88.48
51878;SHT31;37911;51.526;11.536;2023-12-22T17:26:14;5.05;88.28
51878;SHT31;37911;51.526;11.536;2023-12-22T17:29:18;4.85;87.98
51878;SHT31;37911;51.526;11.536;2023-12-22T17:32:24;4.73;87.54
51878;SHT31;37911;51.526;11.536;2023-12-22T17:35:27;4.42;86.84
51878;SHT31;37911;51.526;11.536;2023-12-22T17:38:30;4.17;86.82
51878;SHT31;37911;51.526;11.536;2023-12-22T17:41:34;4.00;87.12
51878;SHT31;37911;51.526;11.536;2023-12-22T17:44:37;3.94;87.26
51878;SHT31;37911;51.526;11.536;2023-12-22T17:47:43;3.82;87.69
51878;SHT31;37911;51.526;11.536;2023-12-22T17:50:47;3.75;87.88
51878;SHT31;37911;51.526;11.536;2023-12-22T17:53:50;3.80;87.97
51878;SHT31;37911;51.526;11.536;2023-12-22T17:56:53;3.79;87.83
51878;SHT31;37911;51.526;11.536;2023-12-22T18:00:01;3.83;87.95
51878;SHT31;37911;51.526;11.536;2023-12-22T18:03:10;3.79;88.28
51878;SHT31;37911;51.526;11.536;2023-12-22T18:06:16;3.89;88.15
51878;SHT31;37911;51.526;11.536;2023-12-22T18:09:21;3.91;88.02
51878;SHT31;37911;51.526;11.536;2023-12-22T18:12:24;3.87;87.91
51878;SHT31;37911;51.526;11.536;2023-12-22T18:15:27;3.85;88.00
51878;SHT31;37911;51.526;11.536;2023-12-22T18:18:33;3.77;88.41
51878;SHT31;37911;51.526;11.536;2023-12-22T18:21:37;3.76;88.64
51878;SHT31;37911;51.526;11.536;2023-12-22T18:24:40;3.72;88.46
51878;SHT31;37911;51.526;11.536;2023-12-22T18:27:43;3.77;88.66
51878;SHT31;37911;51.526;11.536;2023-12-22T18:30:47;3.72;88.93
51878;SHT31;37911;51.526;11.536;2023-12-22T18:33:54;3.77;89.04
51878;SHT31;37911;51.526;11.536;2023-12-22T18:36:57;3.73;88.91
51878;SHT31;37911;51.526;11.536;2023-12-22T18:40:01;3.70;88.85
51878;SHT31;37911;51.526;11.536;2023-12-22T18:43:04;3.62;89.04
51878;SHT31;37911;51.526;11.536;2023-12-22T18:46:07;3.59;89.18
51878;SHT31;37911;51.526;11.536;2023-12-22T18:49:13;3.63;89.10
51878;SHT31;37911;51.526;11.536;2023-12-22T18:52:17;3.55;89.21
51878;SHT31;37911;51.526;11.536;2023-12-22T18:55:20;3.58;89.24
51878;SHT31;37911;51.526;11.536;2023-12-22T18:58:23;3.63;89.20
51878;SHT31;37911;51.526;11.536;2023-12-22T19:01:29;3.54;89.51
51878;SHT31;37911;51.526;11.536;2023-12-22T19:04:35;3.43;89.32
51878;SHT31;37911;51.526;11.536;2023-12-22T19:07:38;3.43;89.35
51878;SHT31;37911;51.526;11.536;2023-12-22T19:10:42;3.36;89.04
51878;SHT31;37911;51.526;11.536;2023-12-22T19:13:46;3.26;88.94
51878;SHT31;37911;51.526;11.536;2023-12-22T19:16:49;3.25;88.71
51878;SHT31;37911;51.526;11.536;2023-12-22T19:19:56;3.16;88.36
51878;SHT31;37911;51.526;11.536;2023-12-22T19:23:00;3.02;88.58
51878;SHT31;37911;51.526;11.536;2023-12-22T19:26:05;2.91;88.65
51878;SHT31;37911;51.526;11.536;2023-12-22T19:29:08;2.87;88.61